createdAt,value
2023-02-17T00:00:53.904Z,87.90
2023-02-17T00:03:20.636Z,88.12
2023-02-17T00:05:48.916Z,87.95
2023-02-17T00:08:16.465Z,88.03
2023-02-17T00:10:43.001Z,88.81
2023-02-17T00:13:09.546Z,89.50
2023-02-17T00:15:38.070Z,90.01
2023-02-17T00:18:04.696Z,88.99
2023-02-17T00:20:31.225Z,88.38
2023-02-17T00:22:57.730Z,85.89
2023-02-17T00:25:24.420Z,87.13
2023-02-17T00:27:51.093Z,87.45
2023-02-17T00:30:18.045Z,87.41
2023-02-17T00:32:44.588Z,86.58
2023-02-17T00:35:12.541Z,87.25
2023-02-17T00:37:41.206Z,86.45
2023-02-17T00:40:07.947Z,87.48
2023-02-17T00:42:34.517Z,87.30
2023-02-17T00:45:01.057Z,88.39
2023-02-17T00:47:27.521Z,89.15
2023-02-17T00:49:54.029Z,88.52
2023-02-17T00:52:20.510Z,88.62
2023-02-17T00:54:47.004Z,88.53
2023-02-17T00:57:13.559Z,88.45
2023-02-17T00:59:40.236Z,87.69
2023-02-17T01:02:07.899Z,88.46
2023-02-17T01:04:36.000Z,88.62
2023-02-17T01:07:02.543Z,88.37
2023-02-17T01:09:29.031Z,88.67
2023-02-17T01:11:55.548Z,88.35
2023-02-17T01:14:22.101Z,88.23
2023-02-17T01:16:49.168Z,88.11
2023-02-17T01:19:17.630Z,88.93
2023-02-17T01:21:47.162Z,88.60
2023-02-17T01:24:13.879Z,89.77
2023-02-17T01:26:40.881Z,90.42
2023-02-17T01:29:07.841Z,89.75
2023-02-17T01:31:34.611Z,89.38
2023-02-17T01:34:02.098Z,89.83
2023-02-17T01:36:28.928Z,89.04
2023-02-17T01:38:55.911Z,89.70
2023-02-17T01:41:23.644Z,89.61
2023-02-17T01:44:07.309Z,88.72
2023-02-17T01:46:37.519Z,88.99
2023-02-17T01:49:11.367Z,89.88
2023-02-17T01:51:38.599Z,89.96
2023-02-17T01:54:24.337Z,90.00
2023-02-17T01:56:51.366Z,89.86
2023-02-17T01:59:21.181Z,90.21
2023-02-17T02:01:53.976Z,90.25
2023-02-17T02:04:22.499Z,89.89
2023-02-17T02:06:49.036Z,89.46
2023-02-17T02:09:18.889Z,89.81
2023-02-17T02:11:47.381Z,90.62
2023-02-17T02:14:16.365Z,90.21
2023-02-17T02:16:42.874Z,88.66
2023-02-17T02:19:28.042Z,85.20
2023-02-17T02:22:10.170Z,87.17
2023-02-17T02:24:39.503Z,85.81
2023-02-17T02:27:15.447Z,87.89
2023-02-17T02:29:54.169Z,89.92
2023-02-17T02:32:43.712Z,90.96
2023-02-17T02:35:26.420Z,90.88
2023-02-17T02:37:58.466Z,90.47
2023-02-17T02:40:28.775Z,89.14
2023-02-17T02:42:56.191Z,88.99
2023-02-17T02:45:22.833Z,88.43
2023-02-17T02:47:51.614Z,84.52
2023-02-17T02:50:42.020Z,83.59
2023-02-17T02:53:11.582Z,86.09
2023-02-17T02:55:50.476Z,87.25
2023-02-17T02:58:21.209Z,87.28
2023-02-17T03:00:57.160Z,88.16
2023-02-17T03:03:26.798Z,88.59
2023-02-17T03:06:13.930Z,89.24
2023-02-17T03:08:44.209Z,89.34
2023-02-17T03:11:11.428Z,89.49
2023-02-17T03:13:39.576Z,89.62
2023-02-17T03:16:08.874Z,89.52
2023-02-17T03:18:35.954Z,89.29
2023-02-17T03:21:06.526Z,89.66
2023-02-17T03:23:33.041Z,90.26
2023-02-17T03:25:59.548Z,90.03
2023-02-17T03:28:26.111Z,90.19
2023-02-17T03:30:52.676Z,89.65
2023-02-17T03:33:19.171Z,88.93
2023-02-17T03:35:45.716Z,89.60
2023-02-17T03:38:12.295Z,89.44
2023-02-17T03:40:38.808Z,89.95
2023-02-17T03:43:05.333Z,90.95
2023-02-17T03:45:31.970Z,90.62
2023-02-17T03:47:58.457Z,90.62
2023-02-17T03:50:25.318Z,91.15
2023-02-17T03:52:51.891Z,90.69
2023-02-17T03:55:18.400Z,90.55
2023-02-17T03:57:44.906Z,89.91
2023-02-17T04:00:11.606Z,90.51
2023-02-17T04:02:43.935Z,90.82
2023-02-17T04:05:10.628Z,90.41
2023-02-17T04:07:37.111Z,88.74
2023-02-17T04:10:05.874Z,88.48
2023-02-17T04:12:33.165Z,88.79
2023-02-17T04:14:59.641Z,89.03
2023-02-17T04:17:26.081Z,89.73
2023-02-17T04:19:52.533Z,88.63
2023-02-17T04:22:19.007Z,89.77
2023-02-17T04:24:45.493Z,90.31
2023-02-17T04:27:11.959Z,90.63
2023-02-17T04:29:38.426Z,91.74
2023-02-17T04:32:04.989Z,91.63
2023-02-17T04:34:31.618Z,91.18
2023-02-17T04:36:58.070Z,90.70
2023-02-17T04:39:24.543Z,89.52
2023-02-17T04:41:51.042Z,88.88
2023-02-17T04:44:17.552Z,88.43
2023-02-17T04:46:44.006Z,88.77
2023-02-17T04:49:10.506Z,83.21
2023-02-17T04:51:37.012Z,83.29
2023-02-17T04:54:03.536Z,85.52
2023-02-17T04:56:29.996Z,87.24
2023-02-17T04:58:56.463Z,87.39
2023-02-17T05:01:23.106Z,89.02
2023-02-17T05:03:49.816Z,89.96
2023-02-17T05:06:16.310Z,89.01
2023-02-17T05:08:42.826Z,89.34
2023-02-17T05:11:09.424Z,88.87
2023-02-17T05:13:35.879Z,88.92
2023-02-17T05:16:02.465Z,90.00
2023-02-17T05:18:28.965Z,90.50
2023-02-17T05:20:55.431Z,90.95
2023-02-17T05:23:21.945Z,88.71
2023-02-17T05:25:48.430Z,88.00
2023-02-17T05:28:14.970Z,88.05
2023-02-17T05:30:41.434Z,88.63
2023-02-17T05:33:07.920Z,89.22
2023-02-17T05:35:37.328Z,89.97
2023-02-17T05:38:03.829Z,90.26
2023-02-17T05:40:30.322Z,89.87
2023-02-17T05:42:56.872Z,89.53
2023-02-17T05:45:23.383Z,89.76
2023-02-17T05:47:49.846Z,90.16
2023-02-17T05:50:16.321Z,89.36
2023-02-17T05:52:42.845Z,88.96
2023-02-17T05:55:09.343Z,88.64
2023-02-17T05:57:35.876Z,88.91
2023-02-17T06:00:02.732Z,89.71
2023-02-17T06:02:38.520Z,90.04
2023-02-17T06:05:05.213Z,90.39
2023-02-17T06:07:31.749Z,90.45
2023-02-17T06:09:58.479Z,89.82
2023-02-17T06:12:25.112Z,89.76
2023-02-17T06:14:51.559Z,91.17
2023-02-17T06:17:18.002Z,90.95
2023-02-17T06:19:44.517Z,90.51
2023-02-17T06:22:10.972Z,90.15
2023-02-17T06:24:37.463Z,90.63
2023-02-17T06:27:03.928Z,91.24
2023-02-17T06:29:30.419Z,92.21
2023-02-17T06:31:56.961Z,91.18
2023-02-17T06:34:23.454Z,87.19
2023-02-17T06:36:49.951Z,86.23
2023-02-17T06:39:16.473Z,86.21
2023-02-17T06:41:42.993Z,87.05
2023-02-17T06:44:09.780Z,86.56
2023-02-17T06:46:36.252Z,87.32
2023-02-17T06:49:02.971Z,87.62
2023-02-17T06:51:29.501Z,87.56
2023-02-17T06:53:56.351Z,87.59
2023-02-17T06:56:22.908Z,86.58
2023-02-17T06:58:49.520Z,85.52
2023-02-17T07:01:17.301Z,84.46
2023-02-17T07:03:43.945Z,83.14
2023-02-17T07:06:10.473Z,85.01
2023-02-17T07:08:37.084Z,84.18
2023-02-17T07:11:10.574Z,83.53
2023-02-17T07:13:37.744Z,82.38
2023-02-17T07:16:04.691Z,81.13
2023-02-17T07:18:31.385Z,79.25
2023-02-17T07:20:57.929Z,77.61
2023-02-17T07:23:24.465Z,76.33
2023-02-17T07:25:50.940Z,73.17
2023-02-17T07:28:17.588Z,70.71
2023-02-17T07:30:44.496Z,70.66
2023-02-17T07:33:11.146Z,69.65
2023-02-17T07:35:44.098Z,69.20
2023-02-17T07:38:10.615Z,69.35
2023-02-17T07:40:37.156Z,68.91
2023-02-17T07:43:03.608Z,66.11
2023-02-17T07:45:30.157Z,64.62
2023-02-17T07:47:56.689Z,63.41
2023-02-17T07:50:23.211Z,64.13
2023-02-17T07:52:50.262Z,62.04
2023-02-17T07:55:16.988Z,61.82
2023-02-17T07:57:43.449Z,62.81
2023-02-17T08:00:10.956Z,61.96
2023-02-17T08:02:40.630Z,63.65
2023-02-17T08:05:07.186Z,60.14
2023-02-17T08:07:33.752Z,58.25
2023-02-17T08:10:19.037Z,56.32
2023-02-17T08:13:04.236Z,56.10
2023-02-17T08:15:32.778Z,57.83
2023-02-17T08:18:00.726Z,54.51
2023-02-17T08:20:27.888Z,54.21
2023-02-17T08:22:54.406Z,55.10
2023-02-17T08:25:20.944Z,53.08
2023-02-17T08:27:47.456Z,50.30
2023-02-17T08:30:14.115Z,52.11
2023-02-17T08:32:40.630Z,51.43
2023-02-17T08:35:07.204Z,53.34
2023-02-17T08:37:33.715Z,52.34
2023-02-17T08:40:00.364Z,51.69
2023-02-17T08:42:27.040Z,52.39
2023-02-17T08:44:53.591Z,53.50
2023-02-17T08:47:20.051Z,53.02
2023-02-17T08:49:46.545Z,51.03
2023-02-17T08:52:13.065Z,52.11
2023-02-17T08:54:39.657Z,50.78
2023-02-17T08:57:06.175Z,48.04
2023-02-17T08:59:32.722Z,47.62
2023-02-17T09:01:59.248Z,46.71
2023-02-17T09:04:25.976Z,45.26
2023-02-17T09:06:53.618Z,46.26
2023-02-17T09:09:22.784Z,47.98
2023-02-17T09:11:49.254Z,44.13
2023-02-17T09:14:15.667Z,44.70
2023-02-17T09:16:42.244Z,43.54
2023-02-17T09:19:08.894Z,42.83
2023-02-17T09:21:35.485Z,43.19
2023-02-17T09:24:01.972Z,43.18
2023-02-17T09:26:28.511Z,44.07
2023-02-17T09:28:55.109Z,45.28
2023-02-17T09:31:23.016Z,43.23
2023-02-17T09:33:50.023Z,42.37
2023-02-17T09:36:18.431Z,42.83
2023-02-17T09:38:45.070Z,40.71
2023-02-17T09:41:16.938Z,41.27
2023-02-17T09:43:43.959Z,42.66
2023-02-17T09:46:14.989Z,42.18
2023-02-17T09:48:42.661Z,42.02
2023-02-17T09:51:14.117Z,40.73
2023-02-17T09:54:02.917Z,40.87
2023-02-17T09:56:33.690Z,40.74
2023-02-17T09:59:02.214Z,38.89
2023-02-17T10:01:30.988Z,37.03
2023-02-17T10:04:02.313Z,37.66
2023-02-17T10:06:40.123Z,35.39
2023-02-17T10:09:18.336Z,35.88
2023-02-17T10:11:53.493Z,35.49
2023-02-17T10:14:28.479Z,35.45
2023-02-17T10:17:00.518Z,35.90
2023-02-17T10:19:32.356Z,34.90
2023-02-17T10:22:05.769Z,33.97
2023-02-17T10:24:32.266Z,34.69
2023-02-17T10:26:58.712Z,33.34
2023-02-17T10:29:25.164Z,33.59
2023-02-17T10:32:04.866Z,30.35
2023-02-17T10:34:36.140Z,31.36
2023-02-17T10:37:04.080Z,30.01
2023-02-17T10:39:50.206Z,30.09
2023-02-17T10:42:20.220Z,30.14
2023-02-17T10:44:48.465Z,30.49
2023-02-17T10:47:15.699Z,30.58
2023-02-17T10:49:45.772Z,31.57
2023-02-17T10:52:32.182Z,34.19
2023-02-17T10:55:20.849Z,34.32
2023-02-17T10:57:52.641Z,32.58
2023-02-17T11:00:19.440Z,32.47
2023-02-17T11:02:47.227Z,31.89
2023-02-17T11:05:27.660Z,31.66
2023-02-17T11:08:02.290Z,31.61
2023-02-17T11:10:36.709Z,31.15
2023-02-17T11:13:04.062Z,31.56
2023-02-17T11:15:43.712Z,31.21
2023-02-17T11:18:18.129Z,31.38
2023-02-17T11:20:45.081Z,31.90
2023-02-17T11:23:14.323Z,31.71
2023-02-17T11:25:42.204Z,31.56
2023-02-17T11:28:12.805Z,31.69
2023-02-17T11:30:40.584Z,32.24
2023-02-17T11:33:14.242Z,32.42
2023-02-17T11:35:41.645Z,31.14
2023-02-17T11:38:15.350Z,30.93
2023-02-17T11:40:51.397Z,31.02
2023-02-17T11:43:20.890Z,30.37
2023-02-17T11:45:56.315Z,30.38
2023-02-17T11:48:38.193Z,30.23
2023-02-17T11:51:13.811Z,32.38
2023-02-17T11:53:52.379Z,32.46
2023-02-17T11:56:22.498Z,33.18
2023-02-17T11:58:52.046Z,30.96
2023-02-17T12:01:18.560Z,29.95
2023-02-17T12:04:04.292Z,29.08
2023-02-17T12:06:43.210Z,29.15
2023-02-17T12:09:21.904Z,30.08
2023-02-17T12:12:07.040Z,30.97
2023-02-17T12:14:42.409Z,30.14
2023-02-17T12:17:24.204Z,30.30
2023-02-17T12:19:53.699Z,29.63
2023-02-17T12:22:39.090Z,30.11
2023-02-17T12:25:26.761Z,29.79
2023-02-17T12:28:00.473Z,29.70
2023-02-17T12:30:33.331Z,30.89
2023-02-17T12:33:15.877Z,31.00
2023-02-17T12:35:55.637Z,31.13
2023-02-17T12:38:25.459Z,29.83
2023-02-17T12:41:10.253Z,30.91
2023-02-17T12:43:40.894Z,31.20
2023-02-17T12:46:10.725Z,32.42
2023-02-17T12:48:59.620Z,31.68
2023-02-17T12:51:33.563Z,31.83
2023-02-17T12:54:00.016Z,30.84
2023-02-17T12:56:34.014Z,30.80
2023-02-17T12:59:23.777Z,30.37
2023-02-17T13:02:00.564Z,30.51
2023-02-17T13:04:28.457Z,30.11
2023-02-17T13:07:07.949Z,30.65
2023-02-17T13:09:36.469Z,31.47
2023-02-17T13:12:10.469Z,30.02
2023-02-17T13:14:42.225Z,31.15
2023-02-17T13:17:27.674Z,31.77
2023-02-17T13:20:09.553Z,29.79
2023-02-17T13:22:36.961Z,30.41
2023-02-17T13:25:03.834Z,29.55
2023-02-17T13:27:37.541Z,29.72
2023-02-17T13:30:22.749Z,30.62
2023-02-17T13:33:00.718Z,31.54
2023-02-17T13:35:27.174Z,31.04
2023-02-17T13:37:54.536Z,30.91
2023-02-17T13:40:22.317Z,31.68
2023-02-17T13:42:49.978Z,31.64
2023-02-17T13:45:45.931Z,31.76
2023-02-17T13:48:24.036Z,32.42
2023-02-17T13:50:58.309Z,31.23
2023-02-17T13:53:24.972Z,32.90
2023-02-17T13:55:52.114Z,32.58
2023-02-17T13:58:24.613Z,32.58
2023-02-17T14:00:52.497Z,32.78
2023-02-17T14:03:30.209Z,32.95
2023-02-17T14:05:57.930Z,33.39
2023-02-17T14:08:27.387Z,33.78
2023-02-17T14:10:54.068Z,33.18
2023-02-17T14:13:22.482Z,33.85
2023-02-17T14:15:59.365Z,33.80
2023-02-17T14:18:34.941Z,35.00
2023-02-17T14:21:09.341Z,34.04
2023-02-17T14:23:47.265Z,33.25
2023-02-17T14:26:15.793Z,33.89
2023-02-17T14:28:52.380Z,34.69
2023-02-17T14:31:19.841Z,35.63
2023-02-17T14:33:57.636Z,34.76
2023-02-17T14:36:42.461Z,33.88
2023-02-17T14:39:13.087Z,33.72
2023-02-17T14:41:39.581Z,33.81
2023-02-17T14:44:06.163Z,34.22
2023-02-17T14:46:33.074Z,37.45
2023-02-17T14:48:59.596Z,34.39
2023-02-17T14:51:32.183Z,34.69
2023-02-17T14:53:58.642Z,35.92
2023-02-17T14:56:26.720Z,35.71
2023-02-17T14:58:53.255Z,37.54
2023-02-17T15:01:20.691Z,37.45
2023-02-17T15:03:47.524Z,38.59
2023-02-17T15:06:15.342Z,39.51
2023-02-17T15:08:42.264Z,39.35
2023-02-17T15:11:13.809Z,39.74
2023-02-17T15:13:40.460Z,39.15
2023-02-17T15:16:08.203Z,40.97
2023-02-17T15:18:35.040Z,39.93
2023-02-17T15:21:01.528Z,40.44
2023-02-17T15:23:37.753Z,41.52
2023-02-17T15:26:05.834Z,42.76
2023-02-17T15:28:32.476Z,42.06
2023-02-17T15:30:58.966Z,42.78
2023-02-17T15:33:25.485Z,42.50
2023-02-17T15:35:56.246Z,43.28
2023-02-17T15:38:23.271Z,43.69
2023-02-17T15:40:50.054Z,43.99
2023-02-17T15:43:19.556Z,44.59
2023-02-17T15:45:46.330Z,44.29
2023-02-17T15:48:19.711Z,45.18
2023-02-17T15:50:46.191Z,44.35
2023-02-17T15:53:12.680Z,45.39
2023-02-17T15:55:39.404Z,45.53
2023-02-17T15:58:10.353Z,47.62
2023-02-17T16:00:36.909Z,47.99
2023-02-17T16:03:03.531Z,48.31
2023-02-17T16:05:30.510Z,48.38
2023-02-17T16:07:57.121Z,48.00
2023-02-17T16:10:27.121Z,48.67
2023-02-17T16:12:55.244Z,48.77
2023-02-17T16:15:23.025Z,48.62
2023-02-17T16:17:50.754Z,48.55
2023-02-17T16:20:22.052Z,49.79
2023-02-17T16:22:48.869Z,52.07
2023-02-17T16:25:16.000Z,52.45
2023-02-17T16:27:43.328Z,52.50
2023-02-17T16:30:16.771Z,52.29
2023-02-17T16:32:43.386Z,51.85
2023-02-17T16:35:13.915Z,53.00
2023-02-17T16:37:40.529Z,52.33
2023-02-17T16:40:14.880Z,51.90
2023-02-17T16:42:41.445Z,52.50
2023-02-17T16:45:13.747Z,53.73
2023-02-17T16:47:40.215Z,53.15
2023-02-17T16:50:08.521Z,52.63
2023-02-17T16:52:34.982Z,53.11
2023-02-17T16:55:01.436Z,51.84
2023-02-17T16:57:27.946Z,52.43
2023-02-17T16:59:54.559Z,51.93
2023-02-17T17:02:22.054Z,50.83
2023-02-17T17:04:48.611Z,53.46
2023-02-17T17:07:16.123Z,55.11
2023-02-17T17:09:45.263Z,54.95
2023-02-17T17:12:15.318Z,55.38
2023-02-17T17:14:41.884Z,56.20
2023-02-17T17:17:09.939Z,57.26
2023-02-17T17:19:36.348Z,56.67
2023-02-17T17:22:02.836Z,57.43
2023-02-17T17:24:30.673Z,57.10
2023-02-17T17:26:57.100Z,56.90
2023-02-17T17:29:23.535Z,57.73
2023-02-17T17:31:50.203Z,57.89
2023-02-17T17:34:16.767Z,56.35
2023-02-17T17:36:44.899Z,57.56
2023-02-17T17:39:14.459Z,57.58
2023-02-17T17:41:40.956Z,58.96
2023-02-17T17:44:10.084Z,57.56
2023-02-17T17:46:37.241Z,56.88
2023-02-17T17:49:05.929Z,56.97
2023-02-17T17:51:33.077Z,57.88
2023-02-17T17:53:59.721Z,57.01
2023-02-17T17:56:27.866Z,57.62
2023-02-17T17:58:54.953Z,58.64
2023-02-17T18:01:21.751Z,57.97
2023-02-17T18:03:48.849Z,57.64
2023-02-17T18:06:20.137Z,57.44
2023-02-17T18:08:47.595Z,57.64
2023-02-17T18:11:15.344Z,58.73
2023-02-17T18:13:42.383Z,59.59
2023-02-17T18:16:09.272Z,61.09
2023-02-17T18:18:36.801Z,60.69
2023-02-17T18:21:03.290Z,60.77
2023-02-17T18:23:29.728Z,60.40
2023-02-17T18:25:56.274Z,60.12
2023-02-17T18:28:22.750Z,60.68
2023-02-17T18:30:49.322Z,60.43
2023-02-17T18:33:15.836Z,60.75
2023-02-17T18:35:44.095Z,61.71
2023-02-17T18:38:10.776Z,62.66
2023-02-17T18:40:40.684Z,62.95
2023-02-17T18:43:07.656Z,62.83
2023-02-17T18:45:34.889Z,62.77
2023-02-17T18:48:01.363Z,62.58
2023-02-17T18:50:32.818Z,62.98
2023-02-17T18:52:59.889Z,63.80
2023-02-17T18:55:26.369Z,63.46
2023-02-17T18:57:54.063Z,63.11
2023-02-17T19:00:20.658Z,64.35
2023-02-17T19:02:47.336Z,64.96
2023-02-17T19:05:13.932Z,64.17
2023-02-17T19:07:40.421Z,63.78
2023-02-17T19:10:07.240Z,65.54
2023-02-17T19:12:34.241Z,65.45
2023-02-17T19:15:00.742Z,64.79
2023-02-17T19:17:27.240Z,64.65
2023-02-17T19:19:53.824Z,64.29
2023-02-17T19:22:20.473Z,64.19
2023-02-17T19:24:50.335Z,64.66
2023-02-17T19:27:16.812Z,64.73
2023-02-17T19:29:43.236Z,64.95
2023-02-17T19:32:09.748Z,64.57
2023-02-17T19:34:37.663Z,64.55
2023-02-17T19:37:04.568Z,66.02
2023-02-17T19:39:31.686Z,66.62
2023-02-17T19:41:58.139Z,66.67
2023-02-17T19:44:24.625Z,66.29
2023-02-17T19:46:51.178Z,66.41
2023-02-17T19:49:17.791Z,66.36
2023-02-17T19:51:44.385Z,65.45
2023-02-17T19:54:10.941Z,65.86
2023-02-17T19:56:38.872Z,66.58
2023-02-17T19:59:05.345Z,65.78
2023-02-17T20:01:32.583Z,65.55
2023-02-17T20:04:01.485Z,65.28
2023-02-17T20:06:29.729Z,65.96
2023-02-17T20:08:58.047Z,66.05
2023-02-17T20:11:24.943Z,66.04
2023-02-17T20:13:51.438Z,66.74
2023-02-17T20:16:18.027Z,67.11
2023-02-17T20:18:46.173Z,67.72
2023-02-17T20:21:16.938Z,68.46
2023-02-17T20:23:43.541Z,68.05
2023-02-17T20:26:11.402Z,69.49
2023-02-17T20:28:38.157Z,69.18
2023-02-17T20:31:05.800Z,69.79
2023-02-17T20:33:32.464Z,69.46
2023-02-17T20:35:58.910Z,69.19
2023-02-17T20:38:25.399Z,68.36
2023-02-17T20:40:52.193Z,69.58
2023-02-17T20:43:18.710Z,70.23
2023-02-17T20:45:45.652Z,70.58
2023-02-17T20:48:12.121Z,70.72
2023-02-17T20:50:38.811Z,71.21
2023-02-17T20:53:05.311Z,71.94
2023-02-17T20:55:31.812Z,70.95
2023-02-17T20:57:58.341Z,71.39
2023-02-17T21:00:25.784Z,71.60
2023-02-17T21:02:52.568Z,71.37
2023-02-17T21:05:19.639Z,72.37
2023-02-17T21:07:46.331Z,74.40
2023-02-17T21:10:15.874Z,74.08
2023-02-17T21:12:42.364Z,74.47
2023-02-17T21:15:09.157Z,75.43
2023-02-17T21:17:35.927Z,75.09
2023-02-17T21:20:02.800Z,75.79
2023-02-17T21:22:29.245Z,74.91
2023-02-17T21:24:55.796Z,75.34
2023-02-17T21:27:22.482Z,74.91
2023-02-17T21:29:48.952Z,74.33
2023-02-17T21:32:15.441Z,75.50
2023-02-17T21:34:42.096Z,75.87
2023-02-17T21:37:08.579Z,76.13
2023-02-17T21:39:35.511Z,76.29
2023-02-17T21:42:02.100Z,77.02
2023-02-17T21:44:47.134Z,76.65
2023-02-17T21:47:13.915Z,76.85
2023-02-17T21:49:40.445Z,76.98
2023-02-17T21:52:06.968Z,76.25
2023-02-17T21:54:33.425Z,76.25
2023-02-17T21:56:59.945Z,76.80
2023-02-17T21:59:26.408Z,76.49
2023-02-17T22:01:52.920Z,76.22
2023-02-17T22:04:20.056Z,76.20
2023-02-17T22:06:46.600Z,76.07
2023-02-17T22:09:14.804Z,76.20
2023-02-17T22:11:42.594Z,76.54
2023-02-17T22:14:12.077Z,77.14
2023-02-17T22:16:39.031Z,77.73
2023-02-17T22:19:06.522Z,77.27
2023-02-17T22:21:33.243Z,78.15
2023-02-17T22:24:00.927Z,77.93
2023-02-17T22:26:27.744Z,77.40
2023-02-17T22:28:54.651Z,77.93
2023-02-17T22:31:22.692Z,76.43
2023-02-17T22:33:49.688Z,75.34
2023-02-17T22:36:18.135Z,75.79
2023-02-17T22:38:44.583Z,76.94
2023-02-17T22:41:12.483Z,77.48
2023-02-17T22:43:39.780Z,77.63
2023-02-17T22:46:07.204Z,77.14
2023-02-17T22:48:35.204Z,77.10
2023-02-17T22:51:08.884Z,77.08
2023-02-17T22:53:36.286Z,77.77
2023-02-17T22:56:03.517Z,78.38
2023-02-17T22:58:30.115Z,79.05
2023-02-17T23:01:04.349Z,78.70
2023-02-17T23:03:30.919Z,78.49
2023-02-17T23:06:01.337Z,78.51
2023-02-17T23:08:27.812Z,78.44
2023-02-17T23:10:54.371Z,77.87
2023-02-17T23:13:21.038Z,78.39
2023-02-17T23:15:47.537Z,78.49
2023-02-17T23:18:15.452Z,78.65
2023-02-17T23:20:43.471Z,77.17
2023-02-17T23:23:10.032Z,76.18
2023-02-17T23:25:38.443Z,77.94
2023-02-17T23:28:06.092Z,78.17
2023-02-17T23:30:33.024Z,79.18
2023-02-17T23:33:00.012Z,79.35
2023-02-17T23:35:26.544Z,78.63
2023-02-17T23:37:53.044Z,78.47
2023-02-17T23:40:19.954Z,79.61
2023-02-17T23:42:46.593Z,80.09
2023-02-17T23:45:13.191Z,79.90
2023-02-17T23:47:39.620Z,80.19
2023-02-17T23:50:06.475Z,79.68
2023-02-17T23:52:33.624Z,79.33
2023-02-17T23:55:00.124Z,79.55
2023-02-17T23:57:27.701Z,79.52
2023-02-17T23:59:54.124Z,79.44
